sensor_id;sensor_type;location;lat;lon;timestamp;temperature;humidity
29431;DHT22;16404;49.902;10.074;2024-01-30T00:01:45;3.90;59.30
29431;DHT22;16404;49.902;10.074;2024-01-30T00:04:30;3.90;59.30
29431;DHT22;16404;49.902;10.074;2024-01-30T00:07:14;3.90;59.40
29431;DHT22;16404;49.902;10.074;2024-01-30T00:09:59;3.90;59.60
29431;DHT22;16404;49.902;10.074;2024-01-30T00:12:44;3.90;59.70
29431;DHT22;16404;49.902;10.074;2024-01-30T00:15:28;3.90;59.80
29431;DHT22;16404;49.902;10.074;2024-01-30T00:18:13;3.90;59.80
29431;DHT22;16404;49.902;10.074;2024-01-30T00:20:58;3.90;59.80
29431;DHT22;16404;49.902;10.074;2024-01-30T00:23:42;4.00;59.90
29431;DHT22;16404;49.902;10.074;2024-01-30T00:26:27;4.00;59.80
29431;DHT22;16404;49.902;10.074;2024-01-30T00:29:11;4.10;60.00
29431;DHT22;16404;49.902;10.074;2024-01-30T00:31:56;4.10;60.00
29431;DHT22;16404;49.902;10.074;2024-01-30T00:34:42;4.10;60.00
29431;DHT22;16404;49.902;10.074;2024-01-30T00:37:26;4.10;59.90
29431;DHT22;16404;49.902;10.074;2024-01-30T00:40:11;4.10;59.90
29431;DHT22;16404;49.902;10.074;2024-01-30T00:42:59;4.10;59.90
29431;DHT22;16404;49.902;10.074;2024-01-30T00:45:44;4.10;59.90
29431;DHT22;16404;49.902;10.074;2024-01-30T00:48:28;4.10;60.00
29431;DHT22;16404;49.902;10.074;2024-01-30T00:51:13;4.10;59.90
29431;DHT22;16404;49.902;10.074;2024-01-30T00:53:57;4.10;59.90
29431;DHT22;16404;49.902;10.074;2024-01-30T00:56:42;4.10;59.80
29431;DHT22;16404;49.902;10.074;2024-01-30T00:59:27;4.10;59.80
29431;DHT22;16404;49.902;10.074;2024-01-30T01:02:11;4.10;59.80
29431;DHT22;16404;49.902;10.074;2024-01-30T01:04:56;4.20;60.40
29431;DHT22;16404;49.902;10.074;2024-01-30T01:07:41;4.20;59.80
29431;DHT22;16404;49.902;10.074;2024-01-30T01:10:26;4.20;59.70
29431;DHT22;16404;49.902;10.074;2024-01-30T01:13:12;4.20;59.60
29431;DHT22;16404;49.902;10.074;2024-01-30T01:15:57;4.20;59.50
29431;DHT22;16404;49.902;10.074;2024-01-30T01:18:41;4.20;59.40
29431;DHT22;16404;49.902;10.074;2024-01-30T01:21:26;4.20;59.40
29431;DHT22;16404;49.902;10.074;2024-01-30T01:24:10;4.10;59.50
29431;DHT22;16404;49.902;10.074;2024-01-30T01:26:55;4.10;59.50
29431;DHT22;16404;49.902;10.074;2024-01-30T01:29:40;4.20;60.10
29431;DHT22;16404;49.902;10.074;2024-01-30T01:32:25;4.10;59.40
29431;DHT22;16404;49.902;10.074;2024-01-30T01:35:10;4.10;59.40
29431;DHT22;16404;49.902;10.074;2024-01-30T01:37:55;4.00;59.40
29431;DHT22;16404;49.902;10.074;2024-01-30T01:40:39;4.00;60.10
29431;DHT22;16404;49.902;10.074;2024-01-30T01:43:24;3.90;59.50
29431;DHT22;16404;49.902;10.074;2024-01-30T01:46:09;3.90;59.50
29431;DHT22;16404;49.902;10.074;2024-01-30T01:48:54;3.90;59.50
29431;DHT22;16404;49.902;10.074;2024-01-30T01:51:39;3.90;59.50
29431;DHT22;16404;49.902;10.074;2024-01-30T01:54:26;3.90;59.40
29431;DHT22;16404;49.902;10.074;2024-01-30T01:57:12;3.90;59.40
29431;DHT22;16404;49.902;10.074;2024-01-30T01:59:56;3.90;59.30
29431;DHT22;16404;49.902;10.074;2024-01-30T02:02:41;3.90;59.30
29431;DHT22;16404;49.902;10.074;2024-01-30T02:05:27;3.90;59.30
29431;DHT22;16404;49.902;10.074;2024-01-30T02:08:12;3.90;59.30
29431;DHT22;16404;49.902;10.074;2024-01-30T02:10:57;3.80;59.20
29431;DHT22;16404;49.902;10.074;2024-01-30T02:13:41;3.80;59.20
29431;DHT22;16404;49.902;10.074;2024-01-30T02:16:26;3.80;59.10
29431;DHT22;16404;49.902;10.074;2024-01-30T02:19:11;3.70;59.10
29431;DHT22;16404;49.902;10.074;2024-01-30T02:21:56;3.70;59.20
29431;DHT22;16404;49.902;10.074;2024-01-30T02:24:40;3.60;59.30
29431;DHT22;16404;49.902;10.074;2024-01-30T02:27:25;3.60;59.40
29431;DHT22;16404;49.902;10.074;2024-01-30T02:30:10;3.60;59.50
29431;DHT22;16404;49.902;10.074;2024-01-30T02:32:55;3.50;59.40
29431;DHT22;16404;49.902;10.074;2024-01-30T02:35:40;3.60;59.50
29431;DHT22;16404;49.902;10.074;2024-01-30T02:38:24;3.50;59.50
29431;DHT22;16404;49.902;10.074;2024-01-30T02:41:10;3.50;59.60
29431;DHT22;16404;49.902;10.074;2024-01-30T02:43:55;3.50;59.50
29431;DHT22;16404;49.902;10.074;2024-01-30T02:46:40;3.50;59.50
29431;DHT22;16404;49.902;10.074;2024-01-30T02:49:25;3.50;59.40
29431;DHT22;16404;49.902;10.074;2024-01-30T02:52:09;3.40;59.30
29431;DHT22;16404;49.902;10.074;2024-01-30T02:54:54;3.40;59.30
29431;DHT22;16404;49.902;10.074;2024-01-30T02:57:39;3.50;59.30
29431;DHT22;16404;49.902;10.074;2024-01-30T03:00:24;3.40;59.30
29431;DHT22;16404;49.902;10.074;2024-01-30T03:03:08;3.40;59.20
29431;DHT22;16404;49.902;10.074;2024-01-30T03:05:53;3.40;59.20
29431;DHT22;16404;49.902;10.074;2024-01-30T03:08:37;3.40;59.20
29431;DHT22;16404;49.902;10.074;2024-01-30T03:11:22;3.40;59.20
29431;DHT22;16404;49.902;10.074;2024-01-30T03:14:06;3.30;59.30
29431;DHT22;16404;49.902;10.074;2024-01-30T03:16:52;3.30;59.30
29431;DHT22;16404;49.902;10.074;2024-01-30T03:19:36;3.30;59.30
29431;DHT22;16404;49.902;10.074;2024-01-30T03:22:21;3.30;59.30
29431;DHT22;16404;49.902;10.074;2024-01-30T03:25:06;3.30;59.30
29431;DHT22;16404;49.902;10.074;2024-01-30T03:27:51;3.30;59.30
29431;DHT22;16404;49.902;10.074;2024-01-30T03:30:35;3.30;59.20
29431;DHT22;16404;49.902;10.074;2024-01-30T03:33:20;3.20;59.00
29431;DHT22;16404;49.902;10.074;2024-01-30T03:36:05;3.10;59.20
29431;DHT22;16404;49.902;10.074;2024-01-30T03:38:49;3.10;59.20
29431;DHT22;16404;49.902;10.074;2024-01-30T03:41:34;3.10;59.20
29431;DHT22;16404;49.902;10.074;2024-01-30T03:44:19;3.10;59.20
29431;DHT22;16404;49.902;10.074;2024-01-30T03:47:03;3.10;59.20
29431;DHT22;16404;49.902;10.074;2024-01-30T03:49:48;3.10;59.20
29431;DHT22;16404;49.902;10.074;2024-01-30T03:52:32;3.10;59.10
29431;DHT22;16404;49.902;10.074;2024-01-30T03:55:17;3.00;59.00
29431;DHT22;16404;49.902;10.074;2024-01-30T03:58:01;3.00;59.00
29431;DHT22;16404;49.902;10.074;2024-01-30T04:00:46;3.10;59.00
29431;DHT22;16404;49.902;10.074;2024-01-30T04:03:31;3.10;59.00
29431;DHT22;16404;49.902;10.074;2024-01-30T04:06:15;3.00;58.90
29431;DHT22;16404;49.902;10.074;2024-01-30T04:09:00;3.00;58.80
29431;DHT22;16404;49.902;10.074;2024-01-30T04:11:44;3.00;58.90
29431;DHT22;16404;49.902;10.074;2024-01-30T04:14:29;2.90;59.00
29431;DHT22;16404;49.902;10.074;2024-01-30T04:17:13;2.90;59.20
29431;DHT22;16404;49.902;10.074;2024-01-30T04:19:58;2.90;59.10
29431;DHT22;16404;49.902;10.074;2024-01-30T04:22:46;3.00;59.10
29431;DHT22;16404;49.902;10.074;2024-01-30T04:25:31;3.00;58.70
29431;DHT22;16404;49.902;10.074;2024-01-30T04:28:16;3.00;58.80
29431;DHT22;16404;49.902;10.074;2024-01-30T04:31:00;2.90;58.80
29431;DHT22;16404;49.902;10.074;2024-01-30T04:33:45;2.90;59.00
29431;DHT22;16404;49.902;10.074;2024-01-30T04:36:29;2.90;59.00
29431;DHT22;16404;49.902;10.074;2024-01-30T04:39:14;2.80;59.60
29431;DHT22;16404;49.902;10.074;2024-01-30T04:41:59;2.80;59.10
29431;DHT22;16404;49.902;10.074;2024-01-30T04:44:43;2.80;59.20
29431;DHT22;16404;49.902;10.074;2024-01-30T04:47:28;2.70;59.30
29431;DHT22;16404;49.902;10.074;2024-01-30T04:50:13;2.70;59.40
29431;DHT22;16404;49.902;10.074;2024-01-30T04:52:58;2.70;59.40
29431;DHT22;16404;49.902;10.074;2024-01-30T04:55:42;2.70;59.40
29431;DHT22;16404;49.902;10.074;2024-01-30T04:58:27;2.80;59.40
29431;DHT22;16404;49.902;10.074;2024-01-30T05:01:17;2.80;59.40
29431;DHT22;16404;49.902;10.074;2024-01-30T05:04:01;2.80;59.30
29431;DHT22;16404;49.902;10.074;2024-01-30T05:06:47;2.80;59.20
29431;DHT22;16404;49.902;10.074;2024-01-30T05:09:32;2.70;59.20
29431;DHT22;16404;49.902;10.074;2024-01-30T05:12:16;2.70;59.20
29431;DHT22;16404;49.902;10.074;2024-01-30T05:15:01;2.70;59.30
29431;DHT22;16404;49.902;10.074;2024-01-30T05:17:46;2.70;59.30
29431;DHT22;16404;49.902;10.074;2024-01-30T05:20:30;2.70;59.20
29431;DHT22;16404;49.902;10.074;2024-01-30T05:23:15;2.70;58.90
29431;DHT22;16404;49.902;10.074;2024-01-30T05:26:00;2.70;58.90
29431;DHT22;16404;49.902;10.074;2024-01-30T05:28:45;2.70;58.90
29431;DHT22;16404;49.902;10.074;2024-01-30T05:31:29;2.60;59.00
29431;DHT22;16404;49.902;10.074;2024-01-30T05:34:15;2.50;59.10
29431;DHT22;16404;49.902;10.074;2024-01-30T05:37:00;2.50;59.10
29431;DHT22;16404;49.902;10.074;2024-01-30T05:39:45;2.50;59.10
29431;DHT22;16404;49.902;10.074;2024-01-30T05:42:29;2.40;59.10
29431;DHT22;16404;49.902;10.074;2024-01-30T05:45:14;2.40;59.30
29431;DHT22;16404;49.902;10.074;2024-01-30T05:47:59;2.40;59.30
29431;DHT22;16404;49.902;10.074;2024-01-30T05:50:43;2.50;59.30
29431;DHT22;16404;49.902;10.074;2024-01-30T05:53:29;2.50;59.30
29431;DHT22;16404;49.902;10.074;2024-01-30T05:56:14;2.50;59.30
29431;DHT22;16404;49.902;10.074;2024-01-30T05:58:59;2.50;59.30
29431;DHT22;16404;49.902;10.074;2024-01-30T06:01:47;2.50;59.40
29431;DHT22;16404;49.902;10.074;2024-01-30T06:04:32;2.40;59.60
29431;DHT22;16404;49.902;10.074;2024-01-30T06:07:17;2.40;59.70
29431;DHT22;16404;49.902;10.074;2024-01-30T06:10:01;2.40;59.70
29431;DHT22;16404;49.902;10.074;2024-01-30T06:12:46;2.50;59.40
29431;DHT22;16404;49.902;10.074;2024-01-30T06:15:32;2.40;59.30
29431;DHT22;16404;49.902;10.074;2024-01-30T06:18:16;2.40;59.40
29431;DHT22;16404;49.902;10.074;2024-01-30T06:21:01;2.50;59.40
29431;DHT22;16404;49.902;10.074;2024-01-30T06:23:46;2.50;59.40
29431;DHT22;16404;49.902;10.074;2024-01-30T06:26:30;2.50;60.00
29431;DHT22;16404;49.902;10.074;2024-01-30T06:29:15;2.50;59.40
29431;DHT22;16404;49.902;10.074;2024-01-30T06:32:00;2.50;59.40
29431;DHT22;16404;49.902;10.074;2024-01-30T06:34:45;2.50;59.30
29431;DHT22;16404;49.902;10.074;2024-01-30T06:37:29;2.50;59.30
29431;DHT22;16404;49.902;10.074;2024-01-30T06:40:14;2.50;59.40
29431;DHT22;16404;49.902;10.074;2024-01-30T06:42:58;2.50;59.30
29431;DHT22;16404;49.902;10.074;2024-01-30T06:45:43;2.40;59.40
29431;DHT22;16404;49.902;10.074;2024-01-30T06:48:28;2.40;59.60
29431;DHT22;16404;49.902;10.074;2024-01-30T06:51:13;2.40;59.60
29431;DHT22;16404;49.902;10.074;2024-01-30T06:53:57;2.50;59.60
29431;DHT22;16404;49.902;10.074;2024-01-30T06:56:42;2.50;59.50
29431;DHT22;16404;49.902;10.074;2024-01-30T06:59:26;2.50;59.40
29431;DHT22;16404;49.902;10.074;2024-01-30T07:02:11;2.50;59.50
29431;DHT22;16404;49.902;10.074;2024-01-30T07:04:56;2.50;59.50
29431;DHT22;16404;49.902;10.074;2024-01-30T07:07:40;2.50;59.50
29431;DHT22;16404;49.902;10.074;2024-01-30T07:10:25;2.50;59.60
29431;DHT22;16404;49.902;10.074;2024-01-30T07:13:13;2.50;59.60
29431;DHT22;16404;49.902;10.074;2024-01-30T07:15:57;2.50;59.60
29431;DHT22;16404;49.902;10.074;2024-01-30T07:18:41;2.50;59.60
29431;DHT22;16404;49.902;10.074;2024-01-30T07:21:26;2.40;59.60
29431;DHT22;16404;49.902;10.074;2024-01-30T07:24:12;2.50;59.70
29431;DHT22;16404;49.902;10.074;2024-01-30T07:26:57;2.50;59.70
29431;DHT22;16404;49.902;10.074;2024-01-30T07:29:41;2.50;59.80
29431;DHT22;16404;49.902;10.074;2024-01-30T07:32:26;2.50;59.80
29431;DHT22;16404;49.902;10.074;2024-01-30T07:35:11;2.60;59.80
29431;DHT22;16404;49.902;10.074;2024-01-30T07:37:55;2.60;59.80
29431;DHT22;16404;49.902;10.074;2024-01-30T07:40:41;2.60;59.80
29431;DHT22;16404;49.902;10.074;2024-01-30T07:43:25;2.70;59.70
29431;DHT22;16404;49.902;10.074;2024-01-30T07:46:10;2.70;59.70
29431;DHT22;16404;49.902;10.074;2024-01-30T07:48:54;2.70;59.80
29431;DHT22;16404;49.902;10.074;2024-01-30T07:51:40;2.80;59.90
29431;DHT22;16404;49.902;10.074;2024-01-30T07:54:24;2.80;60.00
29431;DHT22;16404;49.902;10.074;2024-01-30T07:57:09;2.80;60.00
29431;DHT22;16404;49.902;10.074;2024-01-30T07:59:53;2.90;60.10
29431;DHT22;16404;49.902;10.074;2024-01-30T08:02:38;3.00;60.10
29431;DHT22;16404;49.902;10.074;2024-01-30T08:05:23;3.00;60.10
29431;DHT22;16404;49.902;10.074;2024-01-30T08:08:07;3.10;60.00
29431;DHT22;16404;49.902;10.074;2024-01-30T08:10:52;3.20;60.00
29431;DHT22;16404;49.902;10.074;2024-01-30T08:13:36;3.30;60.10
29431;DHT22;16404;49.902;10.074;2024-01-30T08:16:21;3.30;60.20
29431;DHT22;16404;49.902;10.074;2024-01-30T08:19:06;3.50;60.30
29431;DHT22;16404;49.902;10.074;2024-01-30T08:21:50;3.50;60.40
29431;DHT22;16404;49.902;10.074;2024-01-30T08:24:35;3.60;60.50
29431;DHT22;16404;49.902;10.074;2024-01-30T08:27:19;3.70;60.60
29431;DHT22;16404;49.902;10.074;2024-01-30T08:30:06;3.80;60.60
29431;DHT22;16404;49.902;10.074;2024-01-30T08:32:51;3.90;60.70
29431;DHT22;16404;49.902;10.074;2024-01-30T08:35:35;4.00;60.80
29431;DHT22;16404;49.902;10.074;2024-01-30T08:38:20;4.10;60.90
29431;DHT22;16404;49.902;10.074;2024-01-30T08:41:05;4.30;61.10
29431;DHT22;16404;49.902;10.074;2024-01-30T08:43:49;4.40;61.30
29431;DHT22;16404;49.902;10.074;2024-01-30T08:46:34;4.40;61.40
29431;DHT22;16404;49.902;10.074;2024-01-30T08:49:20;4.60;61.60
29431;DHT22;16404;49.902;10.074;2024-01-30T08:52:05;4.70;61.70
29431;DHT22;16404;49.902;10.074;2024-01-30T08:54:49;4.80;61.80
29431;DHT22;16404;49.902;10.074;2024-01-30T08:57:33;4.90;61.90
29431;DHT22;16404;49.902;10.074;2024-01-30T09:00:18;5.10;62.00
29431;DHT22;16404;49.902;10.074;2024-01-30T09:03:03;5.20;62.00
29431;DHT22;16404;49.902;10.074;2024-01-30T09:05:47;5.40;62.10
29431;DHT22;16404;49.902;10.074;2024-01-30T09:08:32;5.50;62.10
29431;DHT22;16404;49.902;10.074;2024-01-30T09:11:17;5.70;62.20
29431;DHT22;16404;49.902;10.074;2024-01-30T09:14:01;5.80;62.30
29431;DHT22;16404;49.902;10.074;2024-01-30T09:16:46;5.90;62.40
29431;DHT22;16404;49.902;10.074;2024-01-30T09:19:32;6.00;62.50
29431;DHT22;16404;49.902;10.074;2024-01-30T09:22:17;6.10;62.50
29431;DHT22;16404;49.902;10.074;2024-01-30T09:25:02;6.30;62.60
29431;DHT22;16404;49.902;10.074;2024-01-30T09:27:46;6.40;62.70
29431;DHT22;16404;49.902;10.074;2024-01-30T09:30:31;6.50;62.80
29431;DHT22;16404;49.902;10.074;2024-01-30T09:33:16;6.60;62.90
29431;DHT22;16404;49.902;10.074;2024-01-30T09:36:00;6.70;62.90
29431;DHT22;16404;49.902;10.074;2024-01-30T09:38:45;6.80;63.10
29431;DHT22;16404;49.902;10.074;2024-01-30T09:41:32;7.00;63.10
29431;DHT22;16404;49.902;10.074;2024-01-30T09:44:18;7.10;62.90
29431;DHT22;16404;49.902;10.074;2024-01-30T09:47:04;7.20;62.80
29431;DHT22;16404;49.902;10.074;2024-01-30T09:49:50;7.30;62.70
29431;DHT22;16404;49.902;10.074;2024-01-30T09:52:35;7.40;62.70
29431;DHT22;16404;49.902;10.074;2024-01-30T09:55:19;7.50;62.60
29431;DHT22;16404;49.902;10.074;2024-01-30T09:58:05;7.60;62.40
29431;DHT22;16404;49.902;10.074;2024-01-30T10:00:50;7.60;62.40
29431;DHT22;16404;49.902;10.074;2024-01-30T10:03:35;7.70;62.20
29431;DHT22;16404;49.902;10.074;2024-01-30T10:06:19;7.80;62.30
29431;DHT22;16404;49.902;10.074;2024-01-30T10:09:05;7.90;62.20
29431;DHT22;16404;49.902;10.074;2024-01-30T10:11:51;7.90;61.90
29431;DHT22;16404;49.902;10.074;2024-01-30T10:14:39;8.00;61.80
29431;DHT22;16404;49.902;10.074;2024-01-30T10:17:25;8.10;61.80
29431;DHT22;16404;49.902;10.074;2024-01-30T10:20:10;8.20;61.90
29431;DHT22;16404;49.902;10.074;2024-01-30T10:22:55;8.20;61.90
29431;DHT22;16404;49.902;10.074;2024-01-30T10:25:40;8.30;62.10
29431;DHT22;16404;49.902;10.074;2024-01-30T10:28:27;8.50;62.10
29431;DHT22;16404;49.902;10.074;2024-01-30T10:31:16;8.50;61.70
29431;DHT22;16404;49.902;10.074;2024-01-30T10:34:01;8.60;61.50
29431;DHT22;16404;49.902;10.074;2024-01-30T10:36:47;8.70;61.40
29431;DHT22;16404;49.902;10.074;2024-01-30T10:39:40;8.70;61.10
29431;DHT22;16404;49.902;10.074;2024-01-30T10:42:26;8.80;60.80
29431;DHT22;16404;49.902;10.074;2024-01-30T10:45:14;8.90;60.80
29431;DHT22;16404;49.902;10.074;2024-01-30T10:48:03;8.90;60.80
29431;DHT22;16404;49.902;10.074;2024-01-30T10:50:50;9.00;60.90
29431;DHT22;16404;49.902;10.074;2024-01-30T10:53:36;9.00;61.00
29431;DHT22;16404;49.902;10.074;2024-01-30T10:56:22;9.10;61.20
29431;DHT22;16404;49.902;10.074;2024-01-30T10:59:07;9.10;60.90
29431;DHT22;16404;49.902;10.074;2024-01-30T11:01:52;9.20;60.40
29431;DHT22;16404;49.902;10.074;2024-01-30T11:04:41;9.30;60.30
29431;DHT22;16404;49.902;10.074;2024-01-30T11:07:27;9.40;59.80
29431;DHT22;16404;49.902;10.074;2024-01-30T11:10:12;9.40;59.60
29431;DHT22;16404;49.902;10.074;2024-01-30T11:12:59;9.50;59.70
29431;DHT22;16404;49.902;10.074;2024-01-30T11:15:43;9.60;59.70
29431;DHT22;16404;49.902;10.074;2024-01-30T11:18:32;9.70;59.70
29431;DHT22;16404;49.902;10.074;2024-01-30T11:21:16;9.80;59.50
29431;DHT22;16404;49.902;10.074;2024-01-30T11:24:02;9.80;59.40
29431;DHT22;16404;49.902;10.074;2024-01-30T11:26:56;9.90;59.50
29431;DHT22;16404;49.902;10.074;2024-01-30T11:29:42;9.90;59.40
29431;DHT22;16404;49.902;10.074;2024-01-30T11:32:26;10.00;59.40
29431;DHT22;16404;49.902;10.074;2024-01-30T11:35:11;10.00;59.30
29431;DHT22;16404;49.902;10.074;2024-01-30T11:37:58;10.10;59.40
29431;DHT22;16404;49.902;10.074;2024-01-30T11:40:43;10.10;59.70
29431;DHT22;16404;49.902;10.074;2024-01-30T11:43:28;10.20;59.00
29431;DHT22;16404;49.902;10.074;2024-01-30T11:46:12;10.20;59.00
29431;DHT22;16404;49.902;10.074;2024-01-30T11:48:57;10.20;58.80
29431;DHT22;16404;49.902;10.074;2024-01-30T11:51:42;10.30;58.50
29431;DHT22;16404;49.902;10.074;2024-01-30T11:54:27;10.40;58.50
29431;DHT22;16404;49.902;10.074;2024-01-30T11:57:11;10.40;58.10
29431;DHT22;16404;49.902;10.074;2024-01-30T11:59:56;10.40;58.10
29431;DHT22;16404;49.902;10.074;2024-01-30T12:02:41;10.50;58.30
29431;DHT22;16404;49.902;10.074;2024-01-30T12:05:26;10.60;58.50
29431;DHT22;16404;49.902;10.074;2024-01-30T12:08:17;10.70;58.50
29431;DHT22;16404;49.902;10.074;2024-01-30T12:11:01;10.70;58.40
29431;DHT22;16404;49.902;10.074;2024-01-30T12:13:50;10.70;58.70
29431;DHT22;16404;49.902;10.074;2024-01-30T12:16:35;10.60;58.80
29431;DHT22;16404;49.902;10.074;2024-01-30T12:19:24;10.70;58.80
29431;DHT22;16404;49.902;10.074;2024-01-30T12:22:10;10.70;58.80
29431;DHT22;16404;49.902;10.074;2024-01-30T12:24:55;10.80;58.60
29431;DHT22;16404;49.902;10.074;2024-01-30T12:27:42;10.90;58.40
29431;DHT22;16404;49.902;10.074;2024-01-30T12:30:27;10.90;58.30
29431;DHT22;16404;49.902;10.074;2024-01-30T12:33:17;11.00;58.10
29431;DHT22;16404;49.902;10.074;2024-01-30T12:36:02;11.20;58.10
29431;DHT22;16404;49.902;10.074;2024-01-30T12:38:48;11.20;57.80
29431;DHT22;16404;49.902;10.074;2024-01-30T12:41:33;11.20;57.50
29431;DHT22;16404;49.902;10.074;2024-01-30T12:44:17;11.40;57.40
29431;DHT22;16404;49.902;10.074;2024-01-30T12:47:05;11.40;57.30
29431;DHT22;16404;49.902;10.074;2024-01-30T12:49:49;11.50;57.10
29431;DHT22;16404;49.902;10.074;2024-01-30T12:52:37;11.50;56.90
29431;DHT22;16404;49.902;10.074;2024-01-30T12:55:22;11.60;57.00
29431;DHT22;16404;49.902;10.074;2024-01-30T12:58:06;11.70;57.30
29431;DHT22;16404;49.902;10.074;2024-01-30T13:00:51;11.70;57.20
29431;DHT22;16404;49.902;10.074;2024-01-30T13:03:36;11.80;57.10
29431;DHT22;16404;49.902;10.074;2024-01-30T13:06:20;11.80;57.10
29431;DHT22;16404;49.902;10.074;2024-01-30T13:09:05;11.90;57.40
29431;DHT22;16404;49.902;10.074;2024-01-30T13:11:49;11.90;57.50
29431;DHT22;16404;49.902;10.074;2024-01-30T13:14:34;12.00;57.50
29431;DHT22;16404;49.902;10.074;2024-01-30T13:17:19;12.10;57.30
29431;DHT22;16404;49.902;10.074;2024-01-30T13:20:04;12.10;57.00
29431;DHT22;16404;49.902;10.074;2024-01-30T13:22:48;12.10;56.90
29431;DHT22;16404;49.902;10.074;2024-01-30T13:25:36;12.10;57.00
29431;DHT22;16404;49.902;10.074;2024-01-30T13:28:21;12.10;57.20
29431;DHT22;16404;49.902;10.074;2024-01-30T13:31:06;12.20;57.30
29431;DHT22;16404;49.902;10.074;2024-01-30T13:33:50;12.20;57.40
29431;DHT22;16404;49.902;10.074;2024-01-30T13:36:35;12.30;57.20
29431;DHT22;16404;49.902;10.074;2024-01-30T13:39:20;12.30;56.90
29431;DHT22;16404;49.902;10.074;2024-01-30T13:42:04;12.30;56.80
29431;DHT22;16404;49.902;10.074;2024-01-30T13:44:49;12.40;56.70
29431;DHT22;16404;49.902;10.074;2024-01-30T13:47:33;12.40;56.70
29431;DHT22;16404;49.902;10.074;2024-01-30T13:50:18;12.40;56.80
29431;DHT22;16404;49.902;10.074;2024-01-30T13:53:03;12.50;56.80
29431;DHT22;16404;49.902;10.074;2024-01-30T13:55:49;12.50;57.00
29431;DHT22;16404;49.902;10.074;2024-01-30T13:58:33;12.50;57.00
29431;DHT22;16404;49.902;10.074;2024-01-30T14:01:20;12.50;56.70
29431;DHT22;16404;49.902;10.074;2024-01-30T14:04:04;12.50;56.60
29431;DHT22;16404;49.902;10.074;2024-01-30T14:06:49;12.50;57.00
29431;DHT22;16404;49.902;10.074;2024-01-30T14:09:35;12.50;57.00
29431;DHT22;16404;49.902;10.074;2024-01-30T14:12:19;12.50;57.10
29431;DHT22;16404;49.902;10.074;2024-01-30T14:15:04;12.50;57.00
29431;DHT22;16404;49.902;10.074;2024-01-30T14:17:49;12.50;56.90
29431;DHT22;16404;49.902;10.074;2024-01-30T14:20:34;12.60;57.00
29431;DHT22;16404;49.902;10.074;2024-01-30T14:23:18;12.60;57.10
29431;DHT22;16404;49.902;10.074;2024-01-30T14:26:03;12.60;57.20
29431;DHT22;16404;49.902;10.074;2024-01-30T14:28:48;12.50;57.00
29431;DHT22;16404;49.902;10.074;2024-01-30T14:31:32;12.50;57.30
29431;DHT22;16404;49.902;10.074;2024-01-30T14:34:17;12.50;57.20
29431;DHT22;16404;49.902;10.074;2024-01-30T14:37:02;12.50;57.00
29431;DHT22;16404;49.902;10.074;2024-01-30T14:39:47;12.50;56.80
29431;DHT22;16404;49.902;10.074;2024-01-30T14:42:32;12.50;56.80
29431;DHT22;16404;49.902;10.074;2024-01-30T14:45:17;12.50;56.60
29431;DHT22;16404;49.902;10.074;2024-01-30T14:48:01;12.50;56.40
29431;DHT22;16404;49.902;10.074;2024-01-30T14:50:46;12.50;56.30
29431;DHT22;16404;49.902;10.074;2024-01-30T14:53:31;12.40;56.20
29431;DHT22;16404;49.902;10.074;2024-01-30T14:56:15;12.40;56.20
29431;DHT22;16404;49.902;10.074;2024-01-30T14:59:00;12.40;56.10
29431;DHT22;16404;49.902;10.074;2024-01-30T15:01:44;12.30;56.10
29431;DHT22;16404;49.902;10.074;2024-01-30T15:04:29;12.30;56.20
29431;DHT22;16404;49.902;10.074;2024-01-30T15:07:13;12.30;56.30
29431;DHT22;16404;49.902;10.074;2024-01-30T15:09:58;12.20;56.30
29431;DHT22;16404;49.902;10.074;2024-01-30T15:12:43;12.20;56.50
29431;DHT22;16404;49.902;10.074;2024-01-30T15:15:27;12.10;56.50
29431;DHT22;16404;49.902;10.074;2024-01-30T15:18:13;12.10;56.60
29431;DHT22;16404;49.902;10.074;2024-01-30T15:20:58;12.00;56.60
29431;DHT22;16404;49.902;10.074;2024-01-30T15:23:42;12.00;56.70
29431;DHT22;16404;49.902;10.074;2024-01-30T15:26:27;12.00;56.70
29431;DHT22;16404;49.902;10.074;2024-01-30T15:29:12;11.90;56.70
29431;DHT22;16404;49.902;10.074;2024-01-30T15:31:57;11.90;56.80
29431;DHT22;16404;49.902;10.074;2024-01-30T15:34:41;11.90;56.90
29431;DHT22;16404;49.902;10.074;2024-01-30T15:37:26;11.80;56.90
29431;DHT22;16404;49.902;10.074;2024-01-30T15:40:11;11.80;57.00
29431;DHT22;16404;49.902;10.074;2024-01-30T15:42:56;11.80;57.10
29431;DHT22;16404;49.902;10.074;2024-01-30T15:45:41;11.70;57.10
29431;DHT22;16404;49.902;10.074;2024-01-30T15:48:26;11.70;57.10
29431;DHT22;16404;49.902;10.074;2024-01-30T15:51:10;11.60;57.10
29431;DHT22;16404;49.902;10.074;2024-01-30T15:53:55;11.60;57.30
29431;DHT22;16404;49.902;10.074;2024-01-30T15:56:40;11.50;57.20
29431;DHT22;16404;49.902;10.074;2024-01-30T15:59:24;11.50;57.30
29431;DHT22;16404;49.902;10.074;2024-01-30T16:02:10;11.50;57.30
29431;DHT22;16404;49.902;10.074;2024-01-30T16:04:55;11.40;57.30
29431;DHT22;16404;49.902;10.074;2024-01-30T16:07:40;11.30;57.30
29431;DHT22;16404;49.902;10.074;2024-01-30T16:10:25;11.30;57.40
29431;DHT22;16404;49.902;10.074;2024-01-30T16:13:09;11.20;57.50
29431;DHT22;16404;49.902;10.074;2024-01-30T16:15:54;11.20;57.60
29431;DHT22;16404;49.902;10.074;2024-01-30T16:18:39;11.10;57.70
29431;DHT22;16404;49.902;10.074;2024-01-30T16:21:23;11.10;57.70
29431;DHT22;16404;49.902;10.074;2024-01-30T16:24:08;11.00;57.80
29431;DHT22;16404;49.902;10.074;2024-01-30T16:26:52;10.90;57.80
29431;DHT22;16404;49.902;10.074;2024-01-30T16:29:37;10.90;57.80
29431;DHT22;16404;49.902;10.074;2024-01-30T16:32:21;10.80;57.90
29431;DHT22;16404;49.902;10.074;2024-01-30T16:35:06;10.80;58.00
29431;DHT22;16404;49.902;10.074;2024-01-30T16:37:51;10.80;58.10
29431;DHT22;16404;49.902;10.074;2024-01-30T16:40:35;10.70;58.20
29431;DHT22;16404;49.902;10.074;2024-01-30T16:43:20;10.60;58.20
29431;DHT22;16404;49.902;10.074;2024-01-30T16:46:04;10.60;58.50
29431;DHT22;16404;49.902;10.074;2024-01-30T16:48:49;10.50;58.50
29431;DHT22;16404;49.902;10.074;2024-01-30T16:51:34;10.40;58.60
29431;DHT22;16404;49.902;10.074;2024-01-30T16:54:18;10.50;58.60
29431;DHT22;16404;49.902;10.074;2024-01-30T16:57:03;10.40;58.40
29431;DHT22;16404;49.902;10.074;2024-01-30T16:59:47;10.50;58.40
29431;DHT22;16404;49.902;10.074;2024-01-30T17:02:32;10.40;58.90
29431;DHT22;16404;49.902;10.074;2024-01-30T17:05:17;10.30;59.10
29431;DHT22;16404;49.902;10.074;2024-01-30T17:08:01;10.20;58.70
29431;DHT22;16404;49.902;10.074;2024-01-30T17:10:46;10.20;58.80
29431;DHT22;16404;49.902;10.074;2024-01-30T17:13:31;10.10;58.80
29431;DHT22;16404;49.902;10.074;2024-01-30T17:16:15;10.10;58.90